createdAt,value
2022-12-16T00:01:27.725Z,-1.70
2022-12-16T00:05:29.571Z,-1.71
2022-12-16T00:09:31.073Z,-1.72
2022-12-16T00:13:35.708Z,-1.78
2022-12-16T00:17:39.631Z,-1.78
2022-12-16T00:21:41.158Z,-1.75
2022-12-16T00:25:44.316Z,-1.75
2022-12-16T00:29:45.805Z,-1.82
2022-12-16T00:33:47.352Z,-1.78
2022-12-16T00:37:48.844Z,-1.80
2022-12-16T00:41:50.906Z,-1.78
2022-12-16T00:45:53.538Z,-1.80
2022-12-16T00:49:55.296Z,-1.82
2022-12-16T00:53:56.883Z,-1.83
2022-12-16T00:57:59.065Z,-1.78
2022-12-16T01:02:03.716Z,-1.83
2022-12-16T01:06:16.644Z,-1.80
2022-12-16T01:10:18.310Z,-1.80
2022-12-16T01:14:20.080Z,-1.83
2022-12-16T01:18:21.763Z,-1.77
2022-12-16T01:22:23.349Z,-1.80
2022-12-16T01:26:24.917Z,-1.88
2022-12-16T01:30:26.512Z,-1.88
2022-12-16T01:34:28.063Z,-1.90
2022-12-16T01:38:30.328Z,-1.92
2022-12-16T01:42:33.504Z,-1.93
2022-12-16T01:46:38.528Z,-1.95
2022-12-16T01:50:40.088Z,-1.96
2022-12-16T01:54:44.428Z,-2.04
2022-12-16T01:58:46.991Z,-2.08
2022-12-16T02:02:49.525Z,-2.10
2022-12-16T02:06:52.317Z,-2.24
2022-12-16T02:11:38.609Z,-2.28
2022-12-16T02:15:54.360Z,-2.37
2022-12-16T02:19:58.560Z,-2.41
2022-12-16T02:24:29.303Z,-2.44
2022-12-16T02:28:57.646Z,-2.44
2022-12-16T02:33:19.392Z,-2.48
2022-12-16T02:37:36.703Z,-2.50
2022-12-16T02:41:57.451Z,-2.51
2022-12-16T02:45:59.706Z,-2.55
2022-12-16T02:50:01.370Z,-2.58
2022-12-16T02:54:03.176Z,-2.59
2022-12-16T02:58:19.324Z,-2.62
2022-12-16T03:03:02.119Z,-2.62
2022-12-16T03:07:05.835Z,-2.65
2022-12-16T03:11:10.718Z,-2.62
2022-12-16T03:15:16.707Z,-2.66
2022-12-16T03:19:20.538Z,-2.69
2022-12-16T03:23:29.323Z,-2.76
2022-12-16T03:28:00.074Z,-2.79
2022-12-16T03:32:08.166Z,-2.77
2022-12-16T03:36:15.322Z,-2.83
2022-12-16T03:40:17.578Z,-2.82
2022-12-16T03:44:21.103Z,-2.83
2022-12-16T03:48:25.036Z,-2.84
2022-12-16T03:52:26.594Z,-2.86
2022-12-16T03:56:28.239Z,-2.87
2022-12-16T04:00:29.941Z,-2.89
2022-12-16T04:04:31.520Z,-2.90
2022-12-16T04:08:33.065Z,-2.97
2022-12-16T04:12:53.375Z,-2.98
2022-12-16T04:17:14.328Z,-3.01
2022-12-16T04:21:34.186Z,-3.01
2022-12-16T04:25:37.038Z,-3.02
2022-12-16T04:29:58.732Z,-3.00
2022-12-16T04:34:18.516Z,-3.02
2022-12-16T04:38:38.521Z,-3.05
2022-12-16T04:42:58.886Z,-3.08
2022-12-16T04:47:19.343Z,-3.15
2022-12-16T04:51:39.294Z,-3.18
2022-12-16T04:56:04.115Z,-3.19
2022-12-16T05:00:26.424Z,-3.22
2022-12-16T05:04:46.315Z,-3.25
2022-12-16T05:09:06.656Z,-3.26
2022-12-16T05:13:26.540Z,-3.28
2022-12-16T05:17:46.397Z,-3.31
2022-12-16T05:22:06.394Z,-3.28
2022-12-16T05:26:26.179Z,-3.34
2022-12-16T05:30:46.202Z,-3.34
2022-12-16T05:35:06.421Z,-3.37
2022-12-16T05:39:26.729Z,-3.39
2022-12-16T05:43:46.722Z,-3.43
2022-12-16T05:48:07.749Z,-3.44
2022-12-16T05:52:27.633Z,-3.47
2022-12-16T05:56:47.531Z,-3.54
2022-12-16T06:01:07.564Z,-3.55
2022-12-16T06:05:27.845Z,-3.59
2022-12-16T06:09:50.639Z,-3.59
2022-12-16T06:14:14.808Z,-3.57
2022-12-16T06:18:35.125Z,-3.59
2022-12-16T06:22:55.233Z,-3.64
2022-12-16T06:27:15.089Z,-3.64
2022-12-16T06:31:35.233Z,-3.69
2022-12-16T06:35:55.027Z,-3.74
2022-12-16T06:40:14.897Z,-3.77
2022-12-16T06:44:34.821Z,-3.80
2022-12-16T06:48:55.047Z,-3.84
2022-12-16T06:53:15.418Z,-3.88
2022-12-16T06:57:35.374Z,-3.91
2022-12-16T07:01:55.817Z,-3.92
2022-12-16T07:06:16.188Z,-3.95
2022-12-16T07:10:36.422Z,-3.95
2022-12-16T07:14:56.886Z,-3.99
2022-12-16T07:19:16.818Z,-3.99
2022-12-16T07:23:41.169Z,-4.01
2022-12-16T07:28:05.139Z,-3.99
2022-12-16T07:32:25.845Z,-4.02
2022-12-16T07:36:45.900Z,-4.04
2022-12-16T07:41:06.881Z,-4.06
2022-12-16T07:45:27.777Z,-4.09
2022-12-16T07:49:48.079Z,-4.07
2022-12-16T07:54:08.588Z,-4.07
2022-12-16T07:58:29.093Z,-4.07
2022-12-16T08:02:49.142Z,-4.10
2022-12-16T08:07:09.377Z,-4.06
2022-12-16T08:11:29.695Z,-4.02
2022-12-16T08:15:49.613Z,-3.98
2022-12-16T08:20:09.553Z,-3.98
2022-12-16T08:24:29.368Z,-3.94
2022-12-16T08:28:49.399Z,-3.83
2022-12-16T08:33:18.437Z,-3.76
2022-12-16T08:37:40.054Z,-3.70
2022-12-16T08:41:59.948Z,-3.61
2022-12-16T08:46:20.513Z,-3.52
2022-12-16T08:50:40.945Z,-3.43
2022-12-16T08:55:00.880Z,-3.34
2022-12-16T08:59:20.828Z,-3.26
2022-12-16T09:03:41.068Z,-3.19
2022-12-16T09:08:01.347Z,-3.10
2022-12-16T09:12:21.420Z,-3.02
2022-12-16T09:16:42.035Z,-2.94
2022-12-16T09:21:02.183Z,-2.86
2022-12-16T09:25:22.722Z,-2.77
2022-12-16T09:29:45.081Z,-2.71
2022-12-16T09:34:05.591Z,-2.62
2022-12-16T09:38:25.462Z,-2.48
2022-12-16T09:43:17.741Z,-2.40
2022-12-16T09:48:09.697Z,-2.28
2022-12-16T09:52:37.897Z,-2.22
2022-12-16T09:56:58.387Z,-2.24
2022-12-16T10:01:18.918Z,-2.19
2022-12-16T10:05:45.929Z,-2.11
2022-12-16T10:10:12.420Z,-2.07
2022-12-16T10:14:39.717Z,-2.01
2022-12-16T10:19:32.447Z,-1.88
2022-12-16T10:24:37.119Z,-1.67
2022-12-16T10:29:01.849Z,-1.49
2022-12-16T10:33:27.828Z,-1.32
2022-12-16T10:37:53.894Z,-1.28
2022-12-16T10:42:14.825Z,-1.20
2022-12-16T10:46:41.300Z,-1.17
2022-12-16T10:51:01.409Z,-1.11
2022-12-16T10:55:56.988Z,-1.07
2022-12-16T11:00:38.504Z,-0.95
2022-12-16T11:04:58.488Z,-0.89
2022-12-16T11:09:51.962Z,-0.67
2022-12-16T11:14:33.298Z,-0.62
2022-12-16T11:19:07.591Z,-0.63
2022-12-16T11:23:34.120Z,-0.55
2022-12-16T11:27:54.613Z,-0.39
2022-12-16T11:32:15.972Z,-0.27
2022-12-16T11:36:40.548Z,-0.19
2022-12-16T11:41:01.625Z,-0.30
2022-12-16T11:45:23.818Z,-0.34
2022-12-16T11:49:50.959Z,-0.49
2022-12-16T11:54:38.683Z,-0.58
2022-12-16T11:59:06.663Z,-0.56
2022-12-16T12:03:34.610Z,-0.55
2022-12-16T12:08:11.227Z,-0.55
2022-12-16T12:12:49.716Z,-0.55
2022-12-16T12:17:18.817Z,-0.55
2022-12-16T12:21:46.234Z,-0.41
2022-12-16T12:26:26.815Z,-0.27
2022-12-16T12:30:57.973Z,-0.20
2022-12-16T12:35:20.948Z,-0.23
2022-12-16T12:39:51.843Z,-0.24
2022-12-16T12:44:21.835Z,-0.26
2022-12-16T12:48:57.405Z,-0.26
2022-12-16T12:53:26.883Z,-0.30
2022-12-16T12:57:48.449Z,-0.38
2022-12-16T13:02:11.153Z,-0.49
2022-12-16T13:06:34.016Z,-0.52
2022-12-16T13:10:56.231Z,-0.45
2022-12-16T13:15:24.270Z,-0.37
2022-12-16T13:19:47.680Z,-0.27
2022-12-16T13:24:08.016Z,-0.23
2022-12-16T13:28:48.262Z,-0.21
2022-12-16T13:33:21.866Z,-0.23
2022-12-16T13:37:44.336Z,-0.24
2022-12-16T13:42:08.832Z,-0.24
2022-12-16T13:46:33.864Z,-0.26
2022-12-16T13:51:00.249Z,-0.27
2022-12-16T13:55:37.848Z,-0.31
2022-12-16T13:59:59.763Z,-0.32
2022-12-16T14:04:20.635Z,-0.34
2022-12-16T14:08:44.735Z,-0.34
2022-12-16T14:13:28.671Z,-0.34
2022-12-16T14:17:58.855Z,-0.35
2022-12-16T14:22:34.733Z,-0.38
2022-12-16T14:26:56.338Z,-0.41
2022-12-16T14:31:34.883Z,-0.44
2022-12-16T14:35:55.061Z,-0.44
2022-12-16T14:40:16.409Z,-0.44
2022-12-16T14:44:42.040Z,-0.47
2022-12-16T14:49:05.307Z,-0.45
2022-12-16T14:53:32.898Z,-0.45
2022-12-16T14:57:53.139Z,-0.49
2022-12-16T15:02:15.924Z,-0.53
2022-12-16T15:06:49.828Z,-0.59
2022-12-16T15:11:10.283Z,-0.63
2022-12-16T15:15:40.692Z,-0.70
2022-12-16T15:20:10.057Z,-0.77
2022-12-16T15:24:36.338Z,-0.81
2022-12-16T15:29:03.853Z,-0.90
2022-12-16T15:33:25.335Z,-0.96
2022-12-16T15:37:56.055Z,-0.99
2022-12-16T15:42:18.077Z,-1.07
2022-12-16T15:46:46.874Z,-1.10
2022-12-16T15:51:11.285Z,-1.15
2022-12-16T15:55:58.237Z,-1.20
2022-12-16T16:00:36.239Z,-1.23
2022-12-16T16:04:56.580Z,-1.26
2022-12-16T16:09:16.623Z,-1.29
2022-12-16T16:13:37.219Z,-1.31
2022-12-16T16:17:57.477Z,-1.33
2022-12-16T16:22:17.491Z,-1.36
2022-12-16T16:26:40.886Z,-1.36
2022-12-16T16:31:00.996Z,-1.36
2022-12-16T16:35:21.272Z,-1.38
2022-12-16T16:39:41.683Z,-1.39
2022-12-16T16:44:02.016Z,-1.38
2022-12-16T16:48:31.238Z,-1.39
2022-12-16T16:52:51.381Z,-1.44
2022-12-16T16:57:11.895Z,-1.46
2022-12-16T17:01:34.772Z,-1.49
2022-12-16T17:05:55.021Z,-1.53
2022-12-16T17:10:14.975Z,-1.57
2022-12-16T17:14:37.452Z,-1.59
2022-12-16T17:18:57.447Z,-1.64
2022-12-16T17:23:17.796Z,-1.70
2022-12-16T17:27:40.994Z,-1.72
2022-12-16T17:32:00.935Z,-1.75
2022-12-16T17:36:20.980Z,-1.78
2022-12-16T17:40:41.606Z,-1.82
2022-12-16T17:45:01.653Z,-1.83
2022-12-16T17:49:21.784Z,-1.86
2022-12-16T17:53:41.704Z,-1.93
2022-12-16T17:58:01.771Z,-1.92
2022-12-16T18:02:21.685Z,-1.96
2022-12-16T18:06:41.963Z,-2.01
2022-12-16T18:11:02.029Z,-2.04
2022-12-16T18:15:22.550Z,-2.07
2022-12-16T18:19:44.151Z,-2.10
2022-12-16T18:24:04.559Z,-2.10
2022-12-16T18:28:24.956Z,-2.13
2022-12-16T18:32:45.180Z,-2.19
2022-12-16T18:37:05.125Z,-2.21
2022-12-16T18:41:32.160Z,-2.28
2022-12-16T18:45:52.621Z,-2.33
2022-12-16T18:50:12.902Z,-2.40
2022-12-16T18:54:33.428Z,-2.41
2022-12-16T18:58:54.007Z,-2.41
2022-12-16T19:03:14.109Z,-2.44
2022-12-16T19:07:34.391Z,-2.46
2022-12-16T19:11:54.276Z,-2.47
2022-12-16T19:16:15.636Z,-2.50
2022-12-16T19:20:36.053Z,-2.58
2022-12-16T19:24:56.365Z,-2.58
2022-12-16T19:29:16.656Z,-2.59
2022-12-16T19:33:36.851Z,-2.59
2022-12-16T19:37:57.126Z,-2.61
2022-12-16T19:42:17.314Z,-2.61
2022-12-16T19:46:37.376Z,-2.64
2022-12-16T19:50:57.715Z,-2.66
2022-12-16T19:55:18.131Z,-2.72
2022-12-16T19:59:38.545Z,-2.74
2022-12-16T20:04:18.239Z,-2.77
2022-12-16T20:08:38.361Z,-2.82
2022-12-16T20:12:58.492Z,-2.82
2022-12-16T20:17:18.836Z,-2.83
2022-12-16T20:21:38.753Z,-2.82
2022-12-16T20:25:59.112Z,-2.84
2022-12-16T20:30:19.211Z,-2.93
2022-12-16T20:34:39.315Z,-2.97
2022-12-16T20:38:59.662Z,-3.00
2022-12-16T20:43:20.102Z,-3.01
2022-12-16T20:47:40.052Z,-3.05
2022-12-16T20:52:14.028Z,-3.15
2022-12-16T20:56:33.975Z,-3.16
2022-12-16T21:00:56.365Z,-3.16
2022-12-16T21:05:17.259Z,-3.18
2022-12-16T21:09:37.732Z,-3.15
2022-12-16T21:13:58.056Z,-3.16
2022-12-16T21:18:20.116Z,-3.23
2022-12-16T21:22:40.877Z,-3.23
2022-12-16T21:27:00.960Z,-3.21
2022-12-16T21:31:21.262Z,-3.19
2022-12-16T21:35:41.728Z,-3.22
2022-12-16T21:40:01.906Z,-3.33
2022-12-16T21:44:22.334Z,-3.31
2022-12-16T21:48:42.607Z,-3.34
2022-12-16T21:53:06.356Z,-3.37
2022-12-16T21:57:26.424Z,-3.34
2022-12-16T22:01:47.049Z,-3.36
2022-12-16T22:06:07.243Z,-3.41
2022-12-16T22:10:27.656Z,-3.43
2022-12-16T22:14:47.988Z,-3.41
2022-12-16T22:19:07.814Z,-3.44
2022-12-16T22:23:28.446Z,-3.43
2022-12-16T22:28:08.604Z,-3.47
2022-12-16T22:32:29.741Z,-3.49
2022-12-16T22:36:49.648Z,-3.51
2022-12-16T22:41:14.276Z,-3.51
2022-12-16T22:45:34.502Z,-3.52
2022-12-16T22:49:55.959Z,-3.57
2022-12-16T22:54:16.329Z,-3.57
2022-12-16T22:58:36.307Z,-3.59
2022-12-16T23:02:56.866Z,-3.61
2022-12-16T23:07:17.192Z,-3.64
2022-12-16T23:11:40.524Z,-3.65
2022-12-16T23:16:00.569Z,-3.69
2022-12-16T23:20:20.809Z,-3.70
2022-12-16T23:24:41.171Z,-3.76
2022-12-16T23:29:01.687Z,-3.76
2022-12-16T23:33:22.288Z,-3.76
2022-12-16T23:37:42.397Z,-3.79
2022-12-16T23:42:02.765Z,-3.84
2022-12-16T23:46:23.263Z,-3.94
2022-12-16T23:50:43.464Z,-4.04
2022-12-16T23:55:10.963Z,-4.12
2022-12-16T23:59:30.957Z,-4.12
